sensor_id;sensor_type;location;lat;lon;timestamp;P1;durP1;ratioP1;P2;durP2;ratioP2
8102;SDS011;4094;49.948;11.574;2023-06-22T00:01:31;10.00;;;9.20;;
8102;SDS011;4094;49.948;11.574;2023-06-22T00:04:00;10.77;;;9.80;;
8102;SDS011;4094;49.948;11.574;2023-06-22T00:06:29;9.80;;;9.00;;
8102;SDS011;4094;49.948;11.574;2023-06-22T00:09:00;10.20;;;9.40;;
8102;SDS011;4094;49.948;11.574;2023-06-22T00:11:30;10.67;;;9.77;;
8102;SDS011;4094;49.948;11.574;2023-06-22T00:14:01;10.83;;;9.83;;
8102;SDS011;4094;49.948;11.574;2023-06-22T00:16:31;10.53;;;9.73;;
8102;SDS011;4094;49.948;11.574;2023-06-22T00:19:01;10.87;;;9.97;;
8102;SDS011;4094;49.948;11.574;2023-06-22T00:21:32;10.50;;;9.60;;
8102;SDS011;4094;49.948;11.574;2023-06-22T00:24:02;10.67;;;9.73;;
8102;SDS011;4094;49.948;11.574;2023-06-22T00:26:32;10.97;;;10.07;;
8102;SDS011;4094;49.948;11.574;2023-06-22T00:29:02;11.17;;;10.07;;
8102;SDS011;4094;49.948;11.574;2023-06-22T00:31:31;10.73;;;9.70;;
8102;SDS011;4094;49.948;11.574;2023-06-22T00:34:01;10.30;;;9.40;;
8102;SDS011;4094;49.948;11.574;2023-06-22T00:36:30;10.87;;;10.00;;
8102;SDS011;4094;49.948;11.574;2023-06-22T00:39:01;10.43;;;9.40;;
8102;SDS011;4094;49.948;11.574;2023-06-22T00:41:31;10.63;;;9.73;;
8102;SDS011;4094;49.948;11.574;2023-06-22T00:44:00;10.73;;;9.93;;
8102;SDS011;4094;49.948;11.574;2023-06-22T00:46:31;10.80;;;9.83;;
8102;SDS011;4094;49.948;11.574;2023-06-22T00:49:01;10.30;;;9.47;;
8102;SDS011;4094;49.948;11.574;2023-06-22T00:51:33;11.07;;;10.17;;
8102;SDS011;4094;49.948;11.574;2023-06-22T00:54:06;11.43;;;10.27;;
8102;SDS011;4094;49.948;11.574;2023-06-22T00:56:35;11.33;;;10.30;;
8102;SDS011;4094;49.948;11.574;2023-06-22T00:59:05;10.43;;;9.63;;
8102;SDS011;4094;49.948;11.574;2023-06-22T01:01:35;11.23;;;10.07;;
8102;SDS011;4094;49.948;11.574;2023-06-22T01:04:08;11.70;;;10.67;;
8102;SDS011;4094;49.948;11.574;2023-06-22T01:06:42;10.97;;;10.07;;
8102;SDS011;4094;49.948;11.574;2023-06-22T01:09:19;10.97;;;10.13;;
8102;SDS011;4094;49.948;11.574;2023-06-22T01:11:53;10.83;;;10.03;;
8102;SDS011;4094;49.948;11.574;2023-06-22T01:14:27;11.17;;;10.17;;
8102;SDS011;4094;49.948;11.574;2023-06-22T01:17:01;11.00;;;10.10;;
8102;SDS011;4094;49.948;11.574;2023-06-22T01:19:38;10.73;;;9.93;;
8102;SDS011;4094;49.948;11.574;2023-06-22T01:22:16;11.57;;;10.50;;
8102;SDS011;4094;49.948;11.574;2023-06-22T01:24:51;11.67;;;10.67;;
8102;SDS011;4094;49.948;11.574;2023-06-22T01:27:32;11.10;;;10.20;;
8102;SDS011;4094;49.948;11.574;2023-06-22T01:30:11;11.63;;;10.63;;
8102;SDS011;4094;49.948;11.574;2023-06-22T01:32:44;11.80;;;10.80;;
8102;SDS011;4094;49.948;11.574;2023-06-22T01:35:14;11.43;;;10.43;;
8102;SDS011;4094;49.948;11.574;2023-06-22T01:37:45;11.53;;;10.53;;
8102;SDS011;4094;49.948;11.574;2023-06-22T01:40:15;11.33;;;10.43;;
8102;SDS011;4094;49.948;11.574;2023-06-22T01:42:45;12.03;;;10.93;;
8102;SDS011;4094;49.948;11.574;2023-06-22T01:45:16;11.67;;;10.67;;
8102;SDS011;4094;49.948;11.574;2023-06-22T01:47:47;11.77;;;10.80;;
8102;SDS011;4094;49.948;11.574;2023-06-22T01:50:17;12.07;;;11.03;;
8102;SDS011;4094;49.948;11.574;2023-06-22T01:52:47;12.27;;;11.27;;
8102;SDS011;4094;49.948;11.574;2023-06-22T01:55:16;12.07;;;11.07;;
8102;SDS011;4094;49.948;11.574;2023-06-22T01:57:49;12.97;;;11.77;;
8102;SDS011;4094;49.948;11.574;2023-06-22T02:00:20;12.13;;;11.13;;
8102;SDS011;4094;49.948;11.574;2023-06-22T02:02:53;12.43;;;11.33;;
8102;SDS011;4094;49.948;11.574;2023-06-22T02:05:26;11.90;;;10.90;;
8102;SDS011;4094;49.948;11.574;2023-06-22T02:08:04;12.07;;;10.87;;
8102;SDS011;4094;49.948;11.574;2023-06-22T02:10:38;11.67;;;10.77;;
8102;SDS011;4094;49.948;11.574;2023-06-22T02:13:09;11.70;;;10.70;;
8102;SDS011;4094;49.948;11.574;2023-06-22T02:15:42;11.73;;;10.77;;
8102;SDS011;4094;49.948;11.574;2023-06-22T02:18:12;11.70;;;10.60;;
8102;SDS011;4094;49.948;11.574;2023-06-22T02:20:43;10.97;;;10.10;;
8102;SDS011;4094;49.948;11.574;2023-06-22T02:23:12;10.93;;;10.03;;
8102;SDS011;4094;49.948;11.574;2023-06-22T02:25:41;11.67;;;10.67;;
8102;SDS011;4094;49.948;11.574;2023-06-22T02:28:11;10.87;;;9.97;;
8102;SDS011;4094;49.948;11.574;2023-06-22T02:30:42;11.27;;;10.37;;
8102;SDS011;4094;49.948;11.574;2023-06-22T02:33:12;10.87;;;10.03;;
8102;SDS011;4094;49.948;11.574;2023-06-22T02:35:42;11.40;;;10.50;;
8102;SDS011;4094;49.948;11.574;2023-06-22T02:38:15;11.50;;;10.60;;
8102;SDS011;4094;49.948;11.574;2023-06-22T02:40:45;12.07;;;10.57;;
8102;SDS011;4094;49.948;11.574;2023-06-22T02:43:14;10.60;;;9.60;;
8102;SDS011;4094;49.948;11.574;2023-06-22T02:45:46;11.07;;;10.00;;
8102;SDS011;4094;49.948;11.574;2023-06-22T02:48:16;12.27;;;11.03;;
8102;SDS011;4094;49.948;11.574;2023-06-22T02:50:47;12.60;;;10.50;;
8102;SDS011;4094;49.948;11.574;2023-06-22T02:53:17;11.60;;;10.40;;
8102;SDS011;4094;49.948;11.574;2023-06-22T02:55:47;11.93;;;10.80;;
8102;SDS011;4094;49.948;11.574;2023-06-22T02:58:16;11.27;;;10.37;;
8102;SDS011;4094;49.948;11.574;2023-06-22T03:00:47;11.87;;;10.77;;
8102;SDS011;4094;49.948;11.574;2023-06-22T03:03:20;11.90;;;10.77;;
8102;SDS011;4094;49.948;11.574;2023-06-22T03:05:50;12.40;;;11.33;;
8102;SDS011;4094;49.948;11.574;2023-06-22T03:08:22;11.70;;;10.60;;
8102;SDS011;4094;49.948;11.574;2023-06-22T03:10:51;11.13;;;10.17;;
8102;SDS011;4094;49.948;11.574;2023-06-22T03:13:21;11.83;;;10.73;;
8102;SDS011;4094;49.948;11.574;2023-06-22T03:15:52;12.53;;;11.33;;
8102;SDS011;4094;49.948;11.574;2023-06-22T03:18:21;11.33;;;10.43;;
8102;SDS011;4094;49.948;11.574;2023-06-22T03:20:51;12.07;;;10.87;;
8102;SDS011;4094;49.948;11.574;2023-06-22T03:23:20;11.60;;;10.70;;
8102;SDS011;4094;49.948;11.574;2023-06-22T03:25:50;11.13;;;10.17;;
8102;SDS011;4094;49.948;11.574;2023-06-22T03:28:20;12.00;;;10.80;;
8102;SDS011;4094;49.948;11.574;2023-06-22T03:30:49;12.20;;;11.10;;
8102;SDS011;4094;49.948;11.574;2023-06-22T03:33:20;11.97;;;10.97;;
8102;SDS011;4094;49.948;11.574;2023-06-22T03:35:50;11.63;;;10.70;;
8102;SDS011;4094;49.948;11.574;2023-06-22T03:38:21;12.93;;;11.63;;
8102;SDS011;4094;49.948;11.574;2023-06-22T03:40:54;13.43;;;12.13;;
8102;SDS011;4094;49.948;11.574;2023-06-22T03:43:23;11.83;;;10.70;;
8102;SDS011;4094;49.948;11.574;2023-06-22T03:45:53;12.43;;;11.33;;
8102;SDS011;4094;49.948;11.574;2023-06-22T03:48:24;12.63;;;11.50;;
8102;SDS011;4094;49.948;11.574;2023-06-22T03:50:53;12.70;;;11.70;;
8102;SDS011;4094;49.948;11.574;2023-06-22T03:53:23;12.27;;;11.17;;
8102;SDS011;4094;49.948;11.574;2023-06-22T03:55:52;13.53;;;12.33;;
8102;SDS011;4094;49.948;11.574;2023-06-22T03:58:22;12.57;;;11.33;;
8102;SDS011;4094;49.948;11.574;2023-06-22T04:00:52;13.00;;;12.00;;
8102;SDS011;4094;49.948;11.574;2023-06-22T04:03:23;13.43;;;12.23;;
8102;SDS011;4094;49.948;11.574;2023-06-22T04:05:54;13.40;;;12.10;;
8102;SDS011;4094;49.948;11.574;2023-06-22T04:08:23;13.87;;;12.67;;
8102;SDS011;4094;49.948;11.574;2023-06-22T04:10:53;12.63;;;11.53;;
8102;SDS011;4094;49.948;11.574;2023-06-22T04:13:23;13.17;;;11.93;;
8102;SDS011;4094;49.948;11.574;2023-06-22T04:15:52;12.53;;;11.40;;
8102;SDS011;4094;49.948;11.574;2023-06-22T04:18:23;13.30;;;12.30;;
8102;SDS011;4094;49.948;11.574;2023-06-22T04:20:53;13.07;;;11.73;;
8102;SDS011;4094;49.948;11.574;2023-06-22T04:23:23;13.07;;;11.87;;
8102;SDS011;4094;49.948;11.574;2023-06-22T04:25:53;12.87;;;11.77;;
8102;SDS011;4094;49.948;11.574;2023-06-22T04:28:24;14.10;;;12.90;;
8102;SDS011;4094;49.948;11.574;2023-06-22T04:30:54;12.87;;;11.87;;
8102;SDS011;4094;49.948;11.574;2023-06-22T04:33:32;13.40;;;12.27;;
8102;SDS011;4094;49.948;11.574;2023-06-22T04:36:01;14.07;;;12.87;;
8102;SDS011;4094;49.948;11.574;2023-06-22T04:38:31;14.30;;;12.80;;
8102;SDS011;4094;49.948;11.574;2023-06-22T04:41:01;13.33;;;12.23;;
8102;SDS011;4094;49.948;11.574;2023-06-22T04:43:31;13.83;;;12.40;;
8102;SDS011;4094;49.948;11.574;2023-06-22T04:46:03;13.70;;;12.50;;
8102;SDS011;4094;49.948;11.574;2023-06-22T04:48:35;13.10;;;12.10;;
8102;SDS011;4094;49.948;11.574;2023-06-22T04:51:04;12.60;;;11.60;;
8102;SDS011;4094;49.948;11.574;2023-06-22T04:53:36;13.53;;;12.33;;
8102;SDS011;4094;49.948;11.574;2023-06-22T04:56:08;12.30;;;11.10;;
8102;SDS011;4094;49.948;11.574;2023-06-22T04:58:37;12.80;;;11.67;;
8102;SDS011;4094;49.948;11.574;2023-06-22T05:01:07;12.80;;;11.80;;
8102;SDS011;4094;49.948;11.574;2023-06-22T05:03:40;12.20;;;11.20;;
8102;SDS011;4094;49.948;11.574;2023-06-22T05:06:10;13.30;;;12.10;;
8102;SDS011;4094;49.948;11.574;2023-06-22T05:08:42;12.17;;;11.10;;
8102;SDS011;4094;49.948;11.574;2023-06-22T05:11:11;12.67;;;11.57;;
8102;SDS011;4094;49.948;11.574;2023-06-22T05:13:41;12.50;;;11.40;;
8102;SDS011;4094;49.948;11.574;2023-06-22T05:16:11;12.97;;;11.70;;
8102;SDS011;4094;49.948;11.574;2023-06-22T05:18:42;12.43;;;11.40;;
8102;SDS011;4094;49.948;11.574;2023-06-22T05:21:12;12.97;;;11.77;;
8102;SDS011;4094;49.948;11.574;2023-06-22T05:23:41;13.00;;;10.97;;
8102;SDS011;4094;49.948;11.574;2023-06-22T05:26:11;11.60;;;10.70;;
8102;SDS011;4094;49.948;11.574;2023-06-22T05:28:40;12.60;;;11.30;;
8102;SDS011;4094;49.948;11.574;2023-06-22T05:31:13;11.90;;;10.90;;
8102;SDS011;4094;49.948;11.574;2023-06-22T05:33:45;11.97;;;10.93;;
8102;SDS011;4094;49.948;11.574;2023-06-22T05:36:16;11.70;;;10.73;;
8102;SDS011;4094;49.948;11.574;2023-06-22T05:38:47;11.83;;;10.73;;
8102;SDS011;4094;49.948;11.574;2023-06-22T05:41:17;11.07;;;10.00;;
8102;SDS011;4094;49.948;11.574;2023-06-22T05:43:46;11.63;;;10.10;;
8102;SDS011;4094;49.948;11.574;2023-06-22T05:46:16;11.53;;;10.53;;
8102;SDS011;4094;49.948;11.574;2023-06-22T05:48:47;12.57;;;10.50;;
8102;SDS011;4094;49.948;11.574;2023-06-22T05:51:17;11.23;;;10.30;;
8102;SDS011;4094;49.948;11.574;2023-06-22T05:53:47;11.00;;;10.00;;
8102;SDS011;4094;49.948;11.574;2023-06-22T05:56:17;10.87;;;9.87;;
8102;SDS011;4094;49.948;11.574;2023-06-22T05:58:47;10.80;;;9.80;;
8102;SDS011;4094;49.948;11.574;2023-06-22T06:01:16;10.13;;;9.23;;
8102;SDS011;4094;49.948;11.574;2023-06-22T06:03:47;10.03;;;9.03;;
8102;SDS011;4094;49.948;11.574;2023-06-22T06:06:17;9.50;;;8.67;;
8102;SDS011;4094;49.948;11.574;2023-06-22T06:08:48;8.73;;;7.87;;
8102;SDS011;4094;49.948;11.574;2023-06-22T06:11:18;7.77;;;7.17;;
8102;SDS011;4094;49.948;11.574;2023-06-22T06:13:48;7.93;;;7.23;;
8102;SDS011;4094;49.948;11.574;2023-06-22T06:16:17;7.63;;;6.93;;
8102;SDS011;4094;49.948;11.574;2023-06-22T06:18:48;7.13;;;6.53;;
8102;SDS011;4094;49.948;11.574;2023-06-22T06:21:18;6.60;;;6.00;;
8102;SDS011;4094;49.948;11.574;2023-06-22T06:23:47;6.60;;;6.10;;
8102;SDS011;4094;49.948;11.574;2023-06-22T06:26:17;6.77;;;6.13;;
8102;SDS011;4094;49.948;11.574;2023-06-22T06:28:55;7.47;;;6.17;;
8102;SDS011;4094;49.948;11.574;2023-06-22T06:31:25;6.90;;;6.33;;
8102;SDS011;4094;49.948;11.574;2023-06-22T06:33:57;7.20;;;6.50;;
8102;SDS011;4094;49.948;11.574;2023-06-22T06:36:27;6.70;;;6.00;;
8102;SDS011;4094;49.948;11.574;2023-06-22T06:38:56;7.13;;;6.57;;
8102;SDS011;4094;49.948;11.574;2023-06-22T06:41:26;8.67;;;6.23;;
8102;SDS011;4094;49.948;11.574;2023-06-22T06:43:55;6.97;;;6.27;;
8102;SDS011;4094;49.948;11.574;2023-06-22T06:46:24;7.23;;;6.63;;
8102;SDS011;4094;49.948;11.574;2023-06-22T06:48:54;6.67;;;6.07;;
8102;SDS011;4094;49.948;11.574;2023-06-22T06:51:25;7.37;;;6.47;;
8102;SDS011;4094;49.948;11.574;2023-06-22T06:53:54;6.97;;;6.20;;
8102;SDS011;4094;49.948;11.574;2023-06-22T06:56:23;6.77;;;6.27;;
8102;SDS011;4094;49.948;11.574;2023-06-22T06:58:53;6.90;;;6.27;;
8102;SDS011;4094;49.948;11.574;2023-06-22T07:01:23;7.50;;;6.83;;
8102;SDS011;4094;49.948;11.574;2023-06-22T07:03:53;7.00;;;6.10;;
8102;SDS011;4094;49.948;11.574;2023-06-22T07:06:22;6.80;;;6.10;;
8102;SDS011;4094;49.948;11.574;2023-06-22T07:08:57;6.40;;;5.90;;
8102;SDS011;4094;49.948;11.574;2023-06-22T07:11:26;7.67;;;6.23;;
8102;SDS011;4094;49.948;11.574;2023-06-22T07:13:56;6.50;;;6.00;;
8102;SDS011;4094;49.948;11.574;2023-06-22T07:16:25;7.13;;;6.47;;
8102;SDS011;4094;49.948;11.574;2023-06-22T07:18:55;6.63;;;6.13;;
8102;SDS011;4094;49.948;11.574;2023-06-22T07:21:26;6.83;;;5.70;;
8102;SDS011;4094;49.948;11.574;2023-06-22T07:23:56;5.83;;;5.33;;
8102;SDS011;4094;49.948;11.574;2023-06-22T07:26:26;6.00;;;5.50;;
8102;SDS011;4094;49.948;11.574;2023-06-22T07:28:55;5.97;;;5.40;;
8102;SDS011;4094;49.948;11.574;2023-06-22T07:31:25;6.10;;;5.60;;
8102;SDS011;4094;49.948;11.574;2023-06-22T07:33:55;6.40;;;5.80;;
8102;SDS011;4094;49.948;11.574;2023-06-22T07:36:25;6.27;;;5.67;;
8102;SDS011;4094;49.948;11.574;2023-06-22T07:38:57;6.33;;;5.73;;
8102;SDS011;4094;49.948;11.574;2023-06-22T07:41:27;6.60;;;6.00;;
8102;SDS011;4094;49.948;11.574;2023-06-22T07:43:56;6.70;;;6.10;;
8102;SDS011;4094;49.948;11.574;2023-06-22T07:46:26;6.57;;;5.97;;
8102;SDS011;4094;49.948;11.574;2023-06-22T07:48:57;6.53;;;5.93;;
8102;SDS011;4094;49.948;11.574;2023-06-22T07:51:28;5.93;;;5.47;;
8102;SDS011;4094;49.948;11.574;2023-06-22T07:53:58;6.30;;;5.70;;
8102;SDS011;4094;49.948;11.574;2023-06-22T07:56:27;6.53;;;5.93;;
8102;SDS011;4094;49.948;11.574;2023-06-22T07:58:57;6.63;;;5.53;;
8102;SDS011;4094;49.948;11.574;2023-06-22T08:01:28;8.43;;;6.33;;
8102;SDS011;4094;49.948;11.574;2023-06-22T08:03:58;6.40;;;5.80;;
8102;SDS011;4094;49.948;11.574;2023-06-22T08:06:30;7.23;;;5.87;;
8102;SDS011;4094;49.948;11.574;2023-06-22T08:09:00;6.57;;;5.97;;
8102;SDS011;4094;49.948;11.574;2023-06-22T08:11:30;6.73;;;5.63;;
8102;SDS011;4094;49.948;11.574;2023-06-22T08:14:00;6.43;;;5.87;;
8102;SDS011;4094;49.948;11.574;2023-06-22T08:16:30;6.53;;;5.93;;
8102;SDS011;4094;49.948;11.574;2023-06-22T08:18:59;7.23;;;5.80;;
8102;SDS011;4094;49.948;11.574;2023-06-22T08:21:31;6.33;;;5.73;;
8102;SDS011;4094;49.948;11.574;2023-06-22T08:24:00;6.10;;;5.60;;
8102;SDS011;4094;49.948;11.574;2023-06-22T08:26:30;6.63;;;5.90;;
8102;SDS011;4094;49.948;11.574;2023-06-22T08:29:03;6.73;;;6.13;;
8102;SDS011;4094;49.948;11.574;2023-06-22T08:31:33;6.37;;;5.63;;
8102;SDS011;4094;49.948;11.574;2023-06-22T08:34:02;7.00;;;6.00;;
8102;SDS011;4094;49.948;11.574;2023-06-22T08:36:33;6.50;;;5.90;;
8102;SDS011;4094;49.948;11.574;2023-06-22T08:39:05;8.37;;;5.90;;
8102;SDS011;4094;49.948;11.574;2023-06-22T08:41:34;6.03;;;5.40;;
8102;SDS011;4094;49.948;11.574;2023-06-22T08:44:04;6.10;;;5.50;;
8102;SDS011;4094;49.948;11.574;2023-06-22T08:46:33;6.40;;;5.90;;
8102;SDS011;4094;49.948;11.574;2023-06-22T08:49:02;6.13;;;5.23;;
8102;SDS011;4094;49.948;11.574;2023-06-22T08:51:34;6.40;;;5.90;;
8102;SDS011;4094;49.948;11.574;2023-06-22T08:54:03;6.43;;;5.80;;
8102;SDS011;4094;49.948;11.574;2023-06-22T08:56:33;7.10;;;5.23;;
8102;SDS011;4094;49.948;11.574;2023-06-22T08:59:03;5.80;;;5.30;;
8102;SDS011;4094;49.948;11.574;2023-06-22T09:01:35;5.87;;;4.87;;
8102;SDS011;4094;49.948;11.574;2023-06-22T09:04:04;5.30;;;4.90;;
8102;SDS011;4094;49.948;11.574;2023-06-22T09:06:38;5.80;;;5.20;;
8102;SDS011;4094;49.948;11.574;2023-06-22T09:09:12;5.40;;;4.90;;
8102;SDS011;4094;49.948;11.574;2023-06-22T09:11:42;4.87;;;4.47;;
8102;SDS011;4094;49.948;11.574;2023-06-22T09:14:12;4.83;;;4.43;;
8102;SDS011;4094;49.948;11.574;2023-06-22T09:16:41;5.17;;;4.67;;
8102;SDS011;4094;49.948;11.574;2023-06-22T09:19:11;4.70;;;4.30;;
8102;SDS011;4094;49.948;11.574;2023-06-22T09:21:42;4.33;;;3.93;;
8102;SDS011;4094;49.948;11.574;2023-06-22T09:24:12;7.13;;;4.23;;
8102;SDS011;4094;49.948;11.574;2023-06-22T09:26:41;4.37;;;3.87;;
8102;SDS011;4094;49.948;11.574;2023-06-22T09:29:11;4.67;;;4.27;;
8102;SDS011;4094;49.948;11.574;2023-06-22T09:31:40;4.80;;;4.30;;
8102;SDS011;4094;49.948;11.574;2023-06-22T09:34:09;4.67;;;4.27;;
8102;SDS011;4094;49.948;11.574;2023-06-22T09:36:42;5.13;;;4.60;;
8102;SDS011;4094;49.948;11.574;2023-06-22T09:39:12;4.77;;;4.37;;
8102;SDS011;4094;49.948;11.574;2023-06-22T09:41:41;5.30;;;4.43;;
8102;SDS011;4094;49.948;11.574;2023-06-22T09:44:10;4.90;;;4.50;;
8102;SDS011;4094;49.948;11.574;2023-06-22T09:46:40;4.60;;;4.20;;
8102;SDS011;4094;49.948;11.574;2023-06-22T09:49:09;6.13;;;4.63;;
8102;SDS011;4094;49.948;11.574;2023-06-22T09:51:39;6.40;;;4.90;;
8102;SDS011;4094;49.948;11.574;2023-06-22T09:54:10;5.50;;;4.30;;
8102;SDS011;4094;49.948;11.574;2023-06-22T09:56:39;4.87;;;4.37;;
8102;SDS011;4094;49.948;11.574;2023-06-22T09:59:08;4.73;;;4.30;;
8102;SDS011;4094;49.948;11.574;2023-06-22T10:01:45;4.97;;;4.57;;
8102;SDS011;4094;49.948;11.574;2023-06-22T10:04:14;4.83;;;4.43;;
8102;SDS011;4094;49.948;11.574;2023-06-22T10:06:44;5.00;;;4.43;;
8102;SDS011;4094;49.948;11.574;2023-06-22T10:09:15;5.17;;;4.67;;
8102;SDS011;4094;49.948;11.574;2023-06-22T10:11:44;4.53;;;4.13;;
8102;SDS011;4094;49.948;11.574;2023-06-22T10:14:14;4.83;;;4.07;;
8102;SDS011;4094;49.948;11.574;2023-06-22T10:16:44;4.90;;;4.40;;
8102;SDS011;4094;49.948;11.574;2023-06-22T10:19:13;5.77;;;4.60;;
8102;SDS011;4094;49.948;11.574;2023-06-22T10:21:43;5.40;;;4.40;;
8102;SDS011;4094;49.948;11.574;2023-06-22T10:24:12;4.17;;;3.87;;
8102;SDS011;4094;49.948;11.574;2023-06-22T10:26:43;4.80;;;4.40;;
8102;SDS011;4094;49.948;11.574;2023-06-22T10:29:12;5.23;;;4.57;;
8102;SDS011;4094;49.948;11.574;2023-06-22T10:31:44;5.00;;;4.50;;
8102;SDS011;4094;49.948;11.574;2023-06-22T10:34:13;4.77;;;4.00;;
8102;SDS011;4094;49.948;11.574;2023-06-22T10:36:43;5.13;;;4.63;;
8102;SDS011;4094;49.948;11.574;2023-06-22T10:39:14;6.30;;;4.43;;
8102;SDS011;4094;49.948;11.574;2023-06-22T10:41:45;4.50;;;4.10;;
8102;SDS011;4094;49.948;11.574;2023-06-22T10:44:14;5.00;;;4.27;;
8102;SDS011;4094;49.948;11.574;2023-06-22T10:46:45;8.13;;;4.67;;
8102;SDS011;4094;49.948;11.574;2023-06-22T10:49:14;4.30;;;3.90;;
8102;SDS011;4094;49.948;11.574;2023-06-22T10:51:43;4.97;;;4.47;;
8102;SDS011;4094;49.948;11.574;2023-06-22T10:54:12;3.83;;;3.53;;
8102;SDS011;4094;49.948;11.574;2023-06-22T10:56:41;5.17;;;4.23;;
8102;SDS011;4094;49.948;11.574;2023-06-22T10:59:12;6.43;;;3.87;;
8102;SDS011;4094;49.948;11.574;2023-06-22T11:01:42;5.17;;;4.20;;
8102;SDS011;4094;49.948;11.574;2023-06-22T11:04:11;4.10;;;3.70;;
8102;SDS011;4094;49.948;11.574;2023-06-22T11:06:41;4.40;;;4.00;;
8102;SDS011;4094;49.948;11.574;2023-06-22T11:09:11;5.57;;;4.30;;
8102;SDS011;4094;49.948;11.574;2023-06-22T11:11:43;6.20;;;3.63;;
8102;SDS011;4094;49.948;11.574;2023-06-22T11:14:14;5.87;;;4.30;;
8102;SDS011;4094;49.948;11.574;2023-06-22T11:16:43;4.13;;;3.73;;
8102;SDS011;4094;49.948;11.574;2023-06-22T11:19:16;4.83;;;3.93;;
8102;SDS011;4094;49.948;11.574;2023-06-22T11:21:46;4.17;;;3.87;;
8102;SDS011;4094;49.948;11.574;2023-06-22T11:24:15;4.67;;;3.80;;
8102;SDS011;4094;49.948;11.574;2023-06-22T11:26:45;4.40;;;4.00;;
8102;SDS011;4094;49.948;11.574;2023-06-22T11:29:15;4.17;;;3.50;;
8102;SDS011;4094;49.948;11.574;2023-06-22T11:32:04;6.43;;;3.60;;
8102;SDS011;4094;49.948;11.574;2023-06-22T11:34:35;4.40;;;3.60;;
8102;SDS011;4094;49.948;11.574;2023-06-22T11:37:05;4.27;;;3.87;;
8102;SDS011;4094;49.948;11.574;2023-06-22T11:39:34;5.30;;;3.87;;
8102;SDS011;4094;49.948;11.574;2023-06-22T11:42:14;6.93;;;3.93;;
8102;SDS011;4094;49.948;11.574;2023-06-22T11:44:45;7.57;;;3.70;;
8102;SDS011;4094;49.948;11.574;2023-06-22T11:47:14;6.13;;;4.20;;
8102;SDS011;4094;49.948;11.574;2023-06-22T11:49:44;5.33;;;3.80;;
8102;SDS011;4094;49.948;11.574;2023-06-22T11:52:13;6.17;;;3.77;;
8102;SDS011;4094;49.948;11.574;2023-06-22T11:54:45;4.83;;;3.80;;
8102;SDS011;4094;49.948;11.574;2023-06-22T11:57:14;4.40;;;4.00;;
8102;SDS011;4094;49.948;11.574;2023-06-22T11:59:45;4.73;;;3.67;;
8102;SDS011;4094;49.948;11.574;2023-06-22T12:02:15;6.97;;;4.30;;
8102;SDS011;4094;49.948;11.574;2023-06-22T12:04:44;4.53;;;3.60;;
8102;SDS011;4094;49.948;11.574;2023-06-22T12:07:14;6.17;;;3.80;;
8102;SDS011;4094;49.948;11.574;2023-06-22T12:09:43;4.43;;;3.50;;
8102;SDS011;4094;49.948;11.574;2023-06-22T12:12:13;6.30;;;3.77;;
8102;SDS011;4094;49.948;11.574;2023-06-22T12:14:42;6.53;;;3.50;;
8102;SDS011;4094;49.948;11.574;2023-06-22T12:17:13;6.30;;;3.60;;
8102;SDS011;4094;49.948;11.574;2023-06-22T12:19:42;4.67;;;3.47;;
8102;SDS011;4094;49.948;11.574;2023-06-22T12:22:12;5.60;;;3.60;;
8102;SDS011;4094;49.948;11.574;2023-06-22T12:24:41;5.67;;;3.73;;
8102;SDS011;4094;49.948;11.574;2023-06-22T12:27:11;5.40;;;3.83;;
8102;SDS011;4094;49.948;11.574;2023-06-22T12:29:44;7.43;;;3.77;;
8102;SDS011;4094;49.948;11.574;2023-06-22T12:32:18;5.60;;;3.60;;
8102;SDS011;4094;49.948;11.574;2023-06-22T12:34:47;5.23;;;3.60;;
8102;SDS011;4094;49.948;11.574;2023-06-22T12:37:17;7.30;;;3.70;;
8102;SDS011;4094;49.948;11.574;2023-06-22T12:39:46;8.40;;;4.03;;
8102;SDS011;4094;49.948;11.574;2023-06-22T12:42:16;4.97;;;3.50;;
8102;SDS011;4094;49.948;11.574;2023-06-22T12:44:46;5.60;;;3.97;;
8102;SDS011;4094;49.948;11.574;2023-06-22T12:47:15;6.50;;;4.07;;
8102;SDS011;4094;49.948;11.574;2023-06-22T12:49:46;5.53;;;4.13;;
8102;SDS011;4094;49.948;11.574;2023-06-22T12:52:15;4.33;;;3.70;;
8102;SDS011;4094;49.948;11.574;2023-06-22T12:54:45;5.20;;;3.60;;
8102;SDS011;4094;49.948;11.574;2023-06-22T12:57:21;7.70;;;3.57;;
8102;SDS011;4094;49.948;11.574;2023-06-22T12:59:51;5.67;;;3.70;;
8102;SDS011;4094;49.948;11.574;2023-06-22T13:02:20;7.43;;;3.67;;
8102;SDS011;4094;49.948;11.574;2023-06-22T13:04:51;5.50;;;3.30;;
8102;SDS011;4094;49.948;11.574;2023-06-22T13:07:21;5.70;;;3.67;;
8102;SDS011;4094;49.948;11.574;2023-06-22T13:09:51;7.70;;;3.93;;
8102;SDS011;4094;49.948;11.574;2023-06-22T13:12:21;7.77;;;4.03;;
8102;SDS011;4094;49.948;11.574;2023-06-22T13:14:51;5.43;;;3.50;;
8102;SDS011;4094;49.948;11.574;2023-06-22T13:17:20;5.17;;;3.27;;
8102;SDS011;4094;49.948;11.574;2023-06-22T13:19:52;4.53;;;3.13;;
8102;SDS011;4094;49.948;11.574;2023-06-22T13:22:25;4.33;;;3.50;;
8102;SDS011;4094;49.948;11.574;2023-06-22T13:24:57;6.60;;;3.43;;
8102;SDS011;4094;49.948;11.574;2023-06-22T13:27:28;6.83;;;3.67;;
8102;SDS011;4094;49.948;11.574;2023-06-22T13:29:57;5.70;;;3.70;;
8102;SDS011;4094;49.948;11.574;2023-06-22T13:32:26;8.70;;;4.20;;
8102;SDS011;4094;49.948;11.574;2023-06-22T13:34:57;6.13;;;3.60;;
8102;SDS011;4094;49.948;11.574;2023-06-22T13:37:26;7.13;;;4.07;;
8102;SDS011;4094;49.948;11.574;2023-06-22T13:39:55;6.37;;;3.63;;
8102;SDS011;4094;49.948;11.574;2023-06-22T13:42:26;6.90;;;3.60;;
8102;SDS011;4094;49.948;11.574;2023-06-22T13:44:56;4.80;;;3.57;;
8102;SDS011;4094;49.948;11.574;2023-06-22T13:47:26;6.53;;;3.87;;
8102;SDS011;4094;49.948;11.574;2023-06-22T13:49:59;8.13;;;3.70;;
8102;SDS011;4094;49.948;11.574;2023-06-22T13:52:28;6.17;;;3.70;;
8102;SDS011;4094;49.948;11.574;2023-06-22T13:54:57;5.87;;;3.53;;
8102;SDS011;4094;49.948;11.574;2023-06-22T13:57:27;5.20;;;3.30;;
8102;SDS011;4094;49.948;11.574;2023-06-22T13:59:56;5.77;;;3.80;;
8102;SDS011;4094;49.948;11.574;2023-06-22T14:02:25;4.67;;;3.17;;
8102;SDS011;4094;49.948;11.574;2023-06-22T14:04:55;3.83;;;3.23;;
8102;SDS011;4094;49.948;11.574;2023-06-22T14:07:26;5.50;;;3.70;;
8102;SDS011;4094;49.948;11.574;2023-06-22T14:09:56;6.30;;;3.27;;
8102;SDS011;4094;49.948;11.574;2023-06-22T14:12:25;5.13;;;3.80;;
8102;SDS011;4094;49.948;11.574;2023-06-22T14:14:54;5.73;;;4.10;;
8102;SDS011;4094;49.948;11.574;2023-06-22T14:17:25;6.87;;;3.50;;
8102;SDS011;4094;49.948;11.574;2023-06-22T14:19:54;9.60;;;3.80;;
8102;SDS011;4094;49.948;11.574;2023-06-22T14:22:29;4.43;;;3.50;;
8102;SDS011;4094;49.948;11.574;2023-06-22T14:25:04;6.83;;;3.93;;
8102;SDS011;4094;49.948;11.574;2023-06-22T14:27:34;5.40;;;3.30;;
8102;SDS011;4094;49.948;11.574;2023-06-22T14:30:10;6.97;;;3.50;;
8102;SDS011;4094;49.948;11.574;2023-06-22T14:32:40;5.33;;;3.33;;
8102;SDS011;4094;49.948;11.574;2023-06-22T14:35:11;6.77;;;3.70;;
8102;SDS011;4094;49.948;11.574;2023-06-22T14:37:42;5.43;;;3.53;;
8102;SDS011;4094;49.948;11.574;2023-06-22T14:40:12;11.53;;;4.13;;
8102;SDS011;4094;49.948;11.574;2023-06-22T14:42:41;9.07;;;4.27;;
8102;SDS011;4094;49.948;11.574;2023-06-22T14:45:12;9.40;;;3.70;;
8102;SDS011;4094;49.948;11.574;2023-06-22T14:47:42;7.57;;;3.97;;
8102;SDS011;4094;49.948;11.574;2023-06-22T14:50:11;4.67;;;3.13;;
8102;SDS011;4094;49.948;11.574;2023-06-22T14:52:44;8.07;;;3.87;;
8102;SDS011;4094;49.948;11.574;2023-06-22T14:55:14;11.33;;;4.50;;
8102;SDS011;4094;49.948;11.574;2023-06-22T14:57:43;6.53;;;4.27;;
8102;SDS011;4094;49.948;11.574;2023-06-22T15:00:13;6.33;;;3.97;;
8102;SDS011;4094;49.948;11.574;2023-06-22T15:02:42;5.03;;;3.70;;
8102;SDS011;4094;49.948;11.574;2023-06-22T15:05:12;6.87;;;3.93;;
8102;SDS011;4094;49.948;11.574;2023-06-22T15:07:42;8.53;;;3.73;;
8102;SDS011;4094;49.948;11.574;2023-06-22T15:10:13;6.60;;;3.90;;